createdAt,value
2023-02-06T00:02:09.132Z,7.10
2023-02-06T00:04:36.137Z,7.10
2023-02-06T00:07:05.088Z,7.10
2023-02-06T00:09:38.062Z,7.10
2023-02-06T00:12:09.968Z,7.10
2023-02-06T00:14:37.011Z,7.10
2023-02-06T00:17:06.231Z,7.10
2023-02-06T00:19:38.085Z,7.10
2023-02-06T00:22:08.196Z,7.10
2023-02-06T00:24:38.241Z,7.10
2023-02-06T00:27:08.386Z,7.10
2023-02-06T00:29:36.515Z,7.10
2023-02-06T00:32:05.505Z,7.10
2023-02-06T00:34:32.397Z,7.10
2023-02-06T00:37:02.513Z,7.00
2023-02-06T00:39:48.424Z,7.00
2023-02-06T00:42:17.506Z,7.00
2023-02-06T00:44:45.438Z,7.00
2023-02-06T00:47:15.341Z,7.00
2023-02-06T00:49:42.352Z,7.00
2023-02-06T00:52:10.297Z,7.00
2023-02-06T00:54:43.083Z,7.00
2023-02-06T00:57:13.151Z,7.00
2023-02-06T00:59:42.082Z,7.00
2023-02-06T01:02:09.159Z,6.90
2023-02-06T01:04:36.301Z,6.90
2023-02-06T01:07:06.495Z,6.90
2023-02-06T01:09:44.907Z,6.90
2023-02-06T01:12:13.964Z,6.90
2023-02-06T01:14:40.949Z,6.90
2023-02-06T01:17:07.913Z,6.90
2023-02-06T01:19:36.732Z,6.90
2023-02-06T01:22:04.065Z,6.90
2023-02-06T01:24:31.034Z,6.90
2023-02-06T01:27:01.134Z,6.90
2023-02-06T01:29:29.100Z,6.90
2023-02-06T01:31:59.113Z,6.90
2023-02-06T01:34:26.275Z,6.90
2023-02-06T01:36:55.254Z,6.90
2023-02-06T01:39:23.190Z,6.80
2023-02-06T01:41:54.272Z,6.80
2023-02-06T01:44:23.470Z,6.80
2023-02-06T01:46:58.501Z,6.80
2023-02-06T01:49:30.953Z,6.80
2023-02-06T01:52:30.514Z,6.80
2023-02-06T01:55:06.615Z,6.80
2023-02-06T01:57:35.851Z,6.80
2023-02-06T02:00:07.617Z,6.80
2023-02-06T02:02:39.258Z,6.70
2023-02-06T02:05:15.185Z,6.80
2023-02-06T02:07:49.296Z,6.70
2023-02-06T02:10:19.426Z,6.70
2023-02-06T02:12:48.410Z,6.70
2023-02-06T02:15:18.657Z,6.80
2023-02-06T02:18:20.044Z,6.70
2023-02-06T02:21:12.708Z,6.70
2023-02-06T02:23:52.179Z,6.70
2023-02-06T02:26:31.342Z,6.70
2023-02-06T02:29:21.165Z,6.70
2023-02-06T02:32:08.187Z,6.70
2023-02-06T02:35:19.512Z,6.70
2023-02-06T02:38:01.383Z,6.70
2023-02-06T02:40:52.858Z,6.70
2023-02-06T02:43:35.878Z,6.60
2023-02-06T02:46:34.996Z,6.60
2023-02-06T02:49:11.336Z,6.60
2023-02-06T02:51:42.180Z,6.60
2023-02-06T02:54:11.149Z,6.60
2023-02-06T02:56:38.150Z,6.60
2023-02-06T02:59:24.237Z,6.60
2023-02-06T03:02:16.343Z,6.70
2023-02-06T03:04:51.709Z,6.70
2023-02-06T03:07:56.146Z,6.70
2023-02-06T03:10:47.126Z,6.70
2023-02-06T03:13:42.289Z,6.70
2023-02-06T03:16:30.653Z,6.70
2023-02-06T03:19:22.396Z,6.70
2023-02-06T03:21:52.607Z,6.70
2023-02-06T03:24:33.674Z,6.70
2023-02-06T03:27:08.448Z,6.80
2023-02-06T03:29:38.559Z,6.80
2023-02-06T03:32:17.805Z,6.80
2023-02-06T03:35:06.413Z,6.80
2023-02-06T03:37:35.413Z,6.90
2023-02-06T03:40:04.074Z,6.90
2023-02-06T03:42:35.838Z,6.90
2023-02-06T03:45:31.754Z,6.90
2023-02-06T03:48:03.188Z,6.90
2023-02-06T03:50:35.373Z,6.90
2023-02-06T03:53:05.530Z,6.90
2023-02-06T03:55:32.435Z,6.90
2023-02-06T03:58:05.533Z,7.00
2023-02-06T04:00:38.573Z,7.00
2023-02-06T04:03:06.261Z,7.00
2023-02-06T04:05:33.508Z,7.00
2023-02-06T04:08:01.581Z,7.00
2023-02-06T04:10:34.356Z,7.00
2023-02-06T04:13:04.374Z,7.00
2023-02-06T04:15:32.325Z,7.00
2023-02-06T04:18:02.819Z,7.00
2023-02-06T04:20:33.846Z,7.00
2023-02-06T04:23:03.843Z,7.00
2023-02-06T04:25:32.654Z,7.00
2023-02-06T04:28:00.689Z,7.00
2023-02-06T04:30:30.769Z,7.00
2023-02-06T04:33:09.536Z,7.00
2023-02-06T04:35:36.806Z,7.00
2023-02-06T04:38:10.590Z,7.10
2023-02-06T04:40:40.584Z,7.00
2023-02-06T04:43:12.541Z,7.00
2023-02-06T04:45:39.564Z,7.00
2023-02-06T04:48:09.015Z,7.00
2023-02-06T04:50:36.980Z,6.90
2023-02-06T04:53:05.960Z,6.90
2023-02-06T04:55:32.963Z,6.90
2023-02-06T04:58:03.023Z,7.00
2023-02-06T05:00:32.397Z,7.00
2023-02-06T05:02:59.429Z,7.00
2023-02-06T05:05:26.532Z,7.00
2023-02-06T05:07:53.822Z,6.90
2023-02-06T05:10:28.923Z,6.90
2023-02-06T05:13:01.781Z,6.90
2023-02-06T05:15:31.884Z,6.90
2023-02-06T05:17:58.870Z,6.90
2023-02-06T05:20:25.830Z,6.90
2023-02-06T05:22:52.884Z,6.90
2023-02-06T05:25:21.851Z,6.80
2023-02-06T05:27:51.771Z,6.80
2023-02-06T05:30:19.321Z,6.80
2023-02-06T05:32:48.319Z,6.80
2023-02-06T05:35:18.491Z,6.70
2023-02-06T05:37:47.492Z,6.70
2023-02-06T05:40:16.973Z,6.70
2023-02-06T05:42:47.265Z,6.70
2023-02-06T05:45:15.326Z,6.60
2023-02-06T05:47:42.414Z,6.60
2023-02-06T05:50:14.026Z,6.60
2023-02-06T05:52:44.472Z,6.60
2023-02-06T05:55:16.130Z,6.60
2023-02-06T05:57:46.149Z,6.60
2023-02-06T06:00:14.000Z,6.60
2023-02-06T06:02:40.959Z,6.60
2023-02-06T06:05:14.092Z,6.60
2023-02-06T06:07:46.711Z,6.60
2023-02-06T06:10:16.221Z,6.50
2023-02-06T06:12:46.346Z,6.50
2023-02-06T06:15:16.486Z,6.50
2023-02-06T06:17:43.518Z,6.50
2023-02-06T06:20:14.702Z,6.50
2023-02-06T06:22:46.398Z,6.50
2023-02-06T06:25:15.297Z,6.50
2023-02-06T06:27:42.541Z,6.50
2023-02-06T06:30:12.441Z,6.50
2023-02-06T06:32:42.473Z,6.50
2023-02-06T06:35:11.491Z,6.50
2023-02-06T06:37:44.498Z,6.50
2023-02-06T06:40:11.897Z,6.50
2023-02-06T06:42:43.926Z,6.40
2023-02-06T06:45:17.024Z,6.40
2023-02-06T06:47:44.286Z,6.40
2023-02-06T06:50:14.446Z,6.40
2023-02-06T06:52:43.535Z,6.40
2023-02-06T06:55:23.101Z,6.40
2023-02-06T06:57:50.021Z,6.40
2023-02-06T07:00:20.527Z,6.40
2023-02-06T07:02:58.168Z,6.40
2023-02-06T07:05:25.128Z,6.40
2023-02-06T07:07:54.337Z,6.40
2023-02-06T07:10:22.275Z,6.40
2023-02-06T07:12:49.560Z,6.40
2023-02-06T07:15:16.644Z,6.40
2023-02-06T07:17:49.799Z,6.40
2023-02-06T07:20:19.058Z,6.40
2023-02-06T07:22:51.562Z,6.40
2023-02-06T07:25:20.364Z,6.40
2023-02-06T07:27:48.739Z,6.50
2023-02-06T07:30:16.885Z,6.50
2023-02-06T07:32:45.162Z,6.60
2023-02-06T07:35:15.441Z,6.60
2023-02-06T07:37:42.348Z,6.80
2023-02-06T07:42:54.854Z,7.50
2023-02-06T07:45:24.311Z,8.00
2023-02-06T07:47:53.754Z,8.50
2023-02-06T07:50:20.968Z,9.00
2023-02-06T07:52:50.304Z,9.60
2023-02-06T07:55:18.194Z,10.20
2023-02-06T07:57:48.227Z,10.90
2023-02-06T08:00:20.765Z,11.60
2023-02-06T08:02:47.733Z,12.20
2023-02-06T08:05:16.626Z,12.90
2023-02-06T08:07:45.841Z,13.50
2023-02-06T08:10:13.794Z,14.10
2023-02-06T08:12:42.001Z,14.90
2023-02-06T08:15:09.509Z,15.70
2023-02-06T08:17:39.411Z,16.50
2023-02-06T08:20:06.501Z,17.20
2023-02-06T08:22:34.700Z,17.90
2023-02-06T08:25:01.708Z,18.50
2023-02-06T08:27:32.022Z,19.10
2023-02-06T08:29:59.486Z,19.80
2023-02-06T08:32:28.559Z,20.50
2023-02-06T08:34:55.545Z,21.20
2023-02-06T08:37:24.420Z,21.70
2023-02-06T08:39:54.485Z,22.20
2023-02-06T08:42:24.533Z,22.70
2023-02-06T08:44:53.807Z,23.10
2023-02-06T08:47:20.730Z,23.40
2023-02-06T08:49:50.857Z,23.50
2023-02-06T08:52:19.094Z,23.90
2023-02-06T08:54:50.109Z,24.20
2023-02-06T08:57:20.455Z,24.60
2023-02-06T08:59:49.717Z,25.00
2023-02-06T09:02:18.743Z,25.50
2023-02-06T09:04:48.905Z,25.80
2023-02-06T09:07:17.396Z,26.10
2023-02-06T09:09:47.100Z,26.50
2023-02-06T09:12:15.937Z,26.90
2023-02-06T09:14:46.019Z,27.10
2023-02-06T09:17:16.226Z,27.20
2023-02-06T09:19:46.289Z,27.50
2023-02-06T09:22:14.217Z,27.80
2023-02-06T09:24:44.449Z,28.00
2023-02-06T09:27:12.506Z,28.20
2023-02-06T09:29:42.889Z,28.40
2023-02-06T09:32:10.844Z,28.60
2023-02-06T09:34:41.121Z,28.70
2023-02-06T09:37:11.578Z,29.00
2023-02-06T09:39:39.574Z,29.00
2023-02-06T09:42:18.313Z,29.00
2023-02-06T09:44:55.478Z,29.10
2023-02-06T09:47:31.918Z,29.30
2023-02-06T09:50:24.106Z,29.40
2023-02-06T09:53:12.658Z,29.30
2023-02-06T09:55:43.754Z,29.20
2023-02-06T09:58:19.275Z,29.30
2023-02-06T10:01:15.797Z,29.50
2023-02-06T10:04:20.853Z,29.70
2023-02-06T10:07:00.939Z,29.60
2023-02-06T10:09:43.281Z,29.70
2023-02-06T10:12:26.793Z,29.90
2023-02-06T10:15:11.138Z,29.90
2023-02-06T10:18:01.597Z,29.90
2023-02-06T10:20:42.941Z,30.00
2023-02-06T10:23:30.416Z,30.10
2023-02-06T10:26:20.692Z,30.10
2023-02-06T10:28:52.673Z,29.70
2023-02-06T10:31:26.897Z,29.70
2023-02-06T10:34:19.696Z,29.70
2023-02-06T10:36:54.540Z,29.70
2023-02-06T10:40:02.970Z,29.70
2023-02-06T10:42:37.824Z,29.70
2023-02-06T10:45:25.162Z,29.70
2023-02-06T10:47:59.158Z,29.40
2023-02-06T10:50:34.568Z,29.40
2023-02-06T10:53:09.749Z,29.30
2023-02-06T10:56:02.086Z,29.30
2023-02-06T10:58:36.418Z,29.10
2023-02-06T11:01:23.682Z,29.00
2023-02-06T11:04:20.459Z,28.90
2023-02-06T11:06:47.566Z,28.70
2023-02-06T11:09:17.709Z,28.70
2023-02-06T11:11:48.452Z,28.50
2023-02-06T11:14:28.713Z,28.40
2023-02-06T11:16:59.601Z,28.40
2023-02-06T11:19:36.422Z,28.10
2023-02-06T11:22:15.790Z,28.00
2023-02-06T11:25:09.872Z,27.80
2023-02-06T11:27:43.044Z,27.50
2023-02-06T11:30:33.573Z,27.40
2023-02-06T11:33:25.700Z,27.30
2023-02-06T11:36:00.224Z,27.00
2023-02-06T11:38:33.180Z,27.00
2023-02-06T11:41:01.150Z,27.00
2023-02-06T11:43:44.630Z,26.70
2023-02-06T11:46:11.494Z,26.40
2023-02-06T11:49:09.940Z,26.20
2023-02-06T11:51:49.058Z,25.70
2023-02-06T11:54:32.134Z,25.40
2023-02-06T11:57:08.011Z,25.00
2023-02-06T11:59:49.173Z,24.60
2023-02-06T12:02:28.150Z,24.00
2023-02-06T12:05:17.048Z,23.30
2023-02-06T12:07:50.823Z,22.40
2023-02-06T12:10:20.648Z,21.80
2023-02-06T12:12:56.664Z,21.20
2023-02-06T12:15:46.712Z,20.80
2023-02-06T12:18:21.665Z,20.40
2023-02-06T12:21:01.187Z,20.20
2023-02-06T12:23:29.096Z,19.90
2023-02-06T12:26:00.036Z,19.80
2023-02-06T12:28:58.116Z,19.50
2023-02-06T12:31:34.830Z,19.40
2023-02-06T12:34:28.864Z,19.30
2023-02-06T12:37:15.265Z,19.20
2023-02-06T12:39:45.579Z,19.10
2023-02-06T12:42:43.800Z,19.10
2023-02-06T12:45:34.148Z,18.90
2023-02-06T12:48:14.671Z,18.50
2023-02-06T12:51:05.530Z,18.40
2023-02-06T12:53:47.524Z,18.20
2023-02-06T12:56:52.417Z,18.10
2023-02-06T12:59:58.600Z,18.00
2023-02-06T13:02:45.909Z,17.90
2023-02-06T13:05:23.185Z,17.80
2023-02-06T13:07:54.030Z,17.70
2023-02-06T13:10:25.565Z,17.70
2023-02-06T13:13:01.644Z,17.60
2023-02-06T13:15:39.907Z,17.60
2023-02-06T13:18:36.066Z,17.50
2023-02-06T13:21:25.025Z,17.30
2023-02-06T13:24:04.357Z,17.30
2023-02-06T13:26:58.367Z,17.30
2023-02-06T13:29:36.606Z,17.30
2023-02-06T13:32:18.917Z,17.30
2023-02-06T13:35:21.365Z,17.40
2023-02-06T13:37:52.386Z,17.40
2023-02-06T13:40:30.632Z,17.50
2023-02-06T13:43:11.164Z,17.50
2023-02-06T13:45:51.053Z,17.40
2023-02-06T13:48:29.941Z,17.20
2023-02-06T13:51:17.594Z,17.10
2023-02-06T13:53:56.601Z,16.90
2023-02-06T13:56:57.707Z,16.80
2023-02-06T13:59:37.192Z,16.80
2023-02-06T14:02:22.676Z,16.70
2023-02-06T14:04:52.988Z,16.60
2023-02-06T14:07:58.419Z,16.40
2023-02-06T14:10:36.079Z,16.30
2023-02-06T14:13:24.355Z,16.20
2023-02-06T14:16:12.168Z,16.10
2023-02-06T14:19:05.517Z,16.20
2023-02-06T14:21:38.757Z,16.00
2023-02-06T14:24:34.598Z,16.00
2023-02-06T14:27:02.630Z,16.00
2023-02-06T14:30:06.109Z,15.90
2023-02-06T14:33:19.455Z,15.90
2023-02-06T14:36:07.484Z,15.80
2023-02-06T14:38:48.991Z,15.60
2023-02-06T14:41:17.482Z,15.50
2023-02-06T14:43:53.451Z,15.30
2023-02-06T14:46:27.320Z,15.00
2023-02-06T14:48:58.402Z,14.90
2023-02-06T14:51:31.950Z,14.80
2023-02-06T14:54:02.193Z,14.70
2023-02-06T14:56:40.367Z,14.50
2023-02-06T14:59:18.069Z,14.40
2023-02-06T15:01:49.392Z,14.20
2023-02-06T15:04:24.150Z,14.00
2023-02-06T15:07:02.471Z,13.70
2023-02-06T15:09:35.652Z,13.50
2023-02-06T15:12:26.764Z,13.30
2023-02-06T15:15:20.408Z,13.20
2023-02-06T15:18:07.742Z,13.00
2023-02-06T15:20:41.388Z,12.90
2023-02-06T15:23:46.957Z,12.80
2023-02-06T15:26:33.449Z,12.70
2023-02-06T15:29:04.821Z,12.80
2023-02-06T15:31:32.939Z,12.60
2023-02-06T15:34:03.146Z,12.60
2023-02-06T15:36:36.888Z,12.60
2023-02-06T15:39:07.833Z,12.70
2023-02-06T15:41:37.136Z,12.80
2023-02-06T15:44:20.680Z,12.90
2023-02-06T15:46:49.348Z,12.90
2023-02-06T15:49:34.380Z,13.00
2023-02-06T15:52:04.811Z,12.90
2023-02-06T15:54:34.291Z,12.90
2023-02-06T15:57:17.427Z,12.80
2023-02-06T15:59:45.916Z,12.80
2023-02-06T16:02:33.636Z,12.70
2023-02-06T16:05:02.878Z,12.60
2023-02-06T16:07:32.873Z,12.40
2023-02-06T16:10:22.410Z,12.20
2023-02-06T16:12:53.301Z,12.10
2023-02-06T16:15:30.687Z,12.00
2023-02-06T16:18:02.171Z,11.80
2023-02-06T16:20:34.650Z,11.60
2023-02-06T16:23:28.227Z,11.40
2023-02-06T16:26:19.703Z,11.20
2023-02-06T16:28:56.546Z,11.10
2023-02-06T16:31:28.058Z,10.90
2023-02-06T16:33:56.997Z,10.80
2023-02-06T16:36:27.267Z,10.70
2023-02-06T16:39:03.682Z,10.50
2023-02-06T16:41:43.757Z,10.30
2023-02-06T16:44:15.010Z,10.20
2023-02-06T16:46:48.147Z,10.10
2023-02-06T16:49:21.809Z,10.00
2023-02-06T16:52:01.954Z,9.80
2023-02-06T16:54:32.151Z,9.70
2023-02-06T16:57:19.182Z,9.60
2023-02-06T17:02:38.503Z,9.30
2023-02-06T17:05:06.721Z,9.10
2023-02-06T17:07:35.114Z,9.00
2023-02-06T17:10:06.272Z,8.90
2023-02-06T17:12:33.420Z,8.80
2023-02-06T17:15:02.437Z,8.80
2023-02-06T17:17:29.678Z,8.70
2023-02-06T17:19:59.790Z,8.70
2023-02-06T17:22:28.820Z,8.60
2023-02-06T17:24:55.988Z,8.60
2023-02-06T17:27:25.751Z,8.50
2023-02-06T17:29:54.787Z,8.40
2023-02-06T17:32:23.051Z,8.40
2023-02-06T17:34:54.553Z,8.30
2023-02-06T17:37:25.944Z,8.30
2023-02-06T17:39:55.484Z,8.30
2023-02-06T17:42:23.280Z,8.30
2023-02-06T17:44:52.344Z,8.20
2023-02-06T17:47:28.366Z,8.20
2023-02-06T17:50:00.346Z,8.20
2023-02-06T17:52:30.176Z,8.20
2023-02-06T17:54:57.204Z,8.10
2023-02-06T17:57:24.241Z,8.10
2023-02-06T17:59:57.360Z,8.00
2023-02-06T18:02:25.462Z,8.00
2023-02-06T18:05:00.655Z,7.90
2023-02-06T18:07:28.312Z,7.90
2023-02-06T18:09:58.535Z,7.80
2023-02-06T18:12:27.538Z,7.80
2023-02-06T18:14:56.894Z,7.80
2023-02-06T18:17:26.877Z,7.80
2023-02-06T18:19:53.878Z,7.80
2023-02-06T18:22:24.973Z,7.80
2023-02-06T18:24:55.464Z,7.80
2023-02-06T18:27:25.574Z,7.80
2023-02-06T18:29:55.541Z,7.80
2023-02-06T18:32:25.967Z,7.70
2023-02-06T18:34:53.950Z,7.70
2023-02-06T18:37:23.974Z,7.70
2023-02-06T18:39:55.488Z,7.70
2023-02-06T18:42:44.058Z,7.60
2023-02-06T18:45:13.331Z,7.60
2023-02-06T18:47:46.198Z,7.60
2023-02-06T18:50:14.703Z,7.50
2023-02-06T18:52:44.817Z,7.50
2023-02-06T18:55:13.837Z,7.50
2023-02-06T18:57:45.688Z,7.40
2023-02-06T19:00:16.515Z,7.40
2023-02-06T19:02:45.845Z,7.40
2023-02-06T19:05:13.063Z,7.40
2023-02-06T19:07:40.361Z,7.40
2023-02-06T19:10:13.173Z,7.30
2023-02-06T19:12:40.223Z,7.30
2023-02-06T19:15:10.572Z,7.30
2023-02-06T19:17:40.881Z,7.30
2023-02-06T19:20:11.385Z,7.30
2023-02-06T19:22:38.926Z,7.30
2023-02-06T19:25:14.537Z,7.30
2023-02-06T19:27:42.072Z,7.20
2023-02-06T19:30:09.687Z,7.20
2023-02-06T19:32:40.095Z,7.20
2023-02-06T19:35:09.180Z,7.20
2023-02-06T19:37:39.694Z,7.20
2023-02-06T19:40:07.324Z,7.10
2023-02-06T19:42:35.474Z,7.10
2023-02-06T19:45:05.898Z,7.10
2023-02-06T19:47:37.283Z,7.10
2023-02-06T19:50:06.660Z,7.10
2023-02-06T19:52:36.510Z,7.10
2023-02-06T19:55:05.650Z,7.00
2023-02-06T19:57:32.922Z,7.00
2023-02-06T19:59:59.930Z,7.00
2023-02-06T20:02:26.917Z,7.10
2023-02-06T20:04:54.972Z,7.00
2023-02-06T20:07:22.021Z,7.00
2023-02-06T20:09:53.378Z,7.00
2023-02-06T20:12:20.405Z,7.00
2023-02-06T20:14:50.328Z,6.90
2023-02-06T20:17:27.187Z,6.90
2023-02-06T20:19:56.630Z,6.90
2023-02-06T20:22:24.644Z,6.90
2023-02-06T20:24:51.734Z,6.80
2023-02-06T20:27:18.677Z,6.80
2023-02-06T20:29:46.461Z,6.80
2023-02-06T20:32:16.637Z,6.70
2023-02-06T20:34:43.667Z,6.70
2023-02-06T20:37:10.655Z,6.60
2023-02-06T20:39:40.247Z,6.60
2023-02-06T20:42:07.218Z,6.50
2023-02-06T20:44:35.403Z,6.50
2023-02-06T20:47:02.363Z,6.40
2023-02-06T20:49:31.319Z,6.40
2023-02-06T20:52:05.398Z,6.40
2023-02-06T20:54:33.418Z,6.20
2023-02-06T20:57:00.548Z,6.20
2023-02-06T20:59:27.977Z,6.20
2023-02-06T21:01:54.928Z,6.20
2023-02-06T21:04:22.581Z,6.10
2023-02-06T21:06:50.167Z,6.00
2023-02-06T21:09:18.631Z,6.00
2023-02-06T21:11:48.289Z,6.00
2023-02-06T21:14:15.730Z,6.00
2023-02-06T21:16:44.025Z,6.00
2023-02-06T21:19:14.845Z,6.00
2023-02-06T21:21:48.031Z,5.90
2023-02-06T21:24:16.390Z,5.90
2023-02-06T21:26:44.536Z,5.90
2023-02-06T21:29:13.988Z,5.90
2023-02-06T21:31:41.863Z,5.90
2023-02-06T21:34:13.405Z,5.90
2023-02-06T21:36:41.052Z,5.90
2023-02-06T21:39:11.851Z,5.90
2023-02-06T21:41:38.897Z,5.90
2023-02-06T21:44:08.248Z,5.90
2023-02-06T21:46:36.351Z,5.90
2023-02-06T21:49:04.006Z,5.90
2023-02-06T21:51:34.493Z,5.90
2023-02-06T21:54:01.557Z,5.90
2023-02-06T21:56:30.129Z,5.80
2023-02-06T21:58:57.873Z,5.80
2023-02-06T22:01:30.050Z,5.80
2023-02-06T22:04:00.583Z,5.70
2023-02-06T22:06:30.826Z,5.70
2023-02-06T22:09:07.593Z,5.70
2023-02-06T22:11:39.990Z,5.80
2023-02-06T22:14:14.587Z,5.80
2023-02-06T22:16:46.692Z,5.90
2023-02-06T22:19:16.904Z,5.90
2023-02-06T22:21:47.038Z,6.00
2023-02-06T22:24:15.053Z,6.00
2023-02-06T22:26:43.547Z,6.00
2023-02-06T22:29:13.536Z,6.10
2023-02-06T22:31:43.472Z,6.10
2023-02-06T22:34:20.575Z,6.10
2023-02-06T22:36:49.042Z,6.10
2023-02-06T22:39:19.393Z,6.10
2023-02-06T22:41:47.151Z,6.10
2023-02-06T22:44:18.786Z,6.10
2023-02-06T22:46:52.485Z,6.10
2023-02-06T22:49:24.645Z,6.10
2023-02-06T22:51:54.868Z,6.10
2023-02-06T22:54:22.853Z,6.10
2023-02-06T22:56:52.880Z,6.00
2023-02-06T22:59:24.955Z,6.00
2023-02-06T23:02:00.147Z,6.00
2023-02-06T23:04:29.990Z,6.00
2023-02-06T23:06:57.200Z,6.00
2023-02-06T23:09:39.518Z,6.00
2023-02-06T23:12:11.402Z,6.00
2023-02-06T23:14:44.417Z,6.00
2023-02-06T23:17:12.387Z,6.00
2023-02-06T23:19:40.524Z,6.00
2023-02-06T23:22:10.876Z,6.00
2023-02-06T23:24:37.838Z,6.00
2023-02-06T23:27:08.707Z,6.00
2023-02-06T23:29:36.718Z,6.00
2023-02-06T23:32:06.719Z,6.00
2023-02-06T23:34:34.636Z,6.00
2023-02-06T23:37:08.048Z,5.90
2023-02-06T23:39:38.109Z,6.00
2023-02-06T23:42:11.187Z,6.00
2023-02-06T23:44:40.213Z,6.00
2023-02-06T23:47:10.622Z,6.00
2023-02-06T23:49:39.629Z,6.00
2023-02-06T23:52:09.677Z,6.00
2023-02-06T23:54:39.772Z,6.00
2023-02-06T23:57:10.192Z,6.00
2023-02-06T23:59:40.260Z,6.00
